sensor_id;sensor_type;location;lat;lon;timestamp;P1;durP1;ratioP1;P2;durP2;ratioP2
67372;SDS011;54257;54.496;18.412;2023-04-30T00:00:00;5.90;;;4.30;;
67372;SDS011;54257;54.496;18.412;2023-04-30T00:02:28;9.50;;;3.60;;
67372;SDS011;54257;54.496;18.412;2023-04-30T00:04:55;5.30;;;3.80;;
67372;SDS011;54257;54.496;18.412;2023-04-30T00:07:22;5.80;;;3.50;;
67372;SDS011;54257;54.496;18.412;2023-04-30T00:09:48;5.70;;;3.50;;
67372;SDS011;54257;54.496;18.412;2023-04-30T00:12:16;6.50;;;3.40;;
67372;SDS011;54257;54.496;18.412;2023-04-30T00:14:43;7.40;;;3.50;;
67372;SDS011;54257;54.496;18.412;2023-04-30T00:17:10;5.70;;;3.30;;
67372;SDS011;54257;54.496;18.412;2023-04-30T00:19:38;6.50;;;2.90;;
67372;SDS011;54257;54.496;18.412;2023-04-30T00:22:05;6.90;;;3.00;;
67372;SDS011;54257;54.496;18.412;2023-04-30T00:24:31;4.90;;;3.20;;
67372;SDS011;54257;54.496;18.412;2023-04-30T00:26:58;6.20;;;3.20;;
67372;SDS011;54257;54.496;18.412;2023-04-30T00:29:26;5.70;;;2.80;;
67372;SDS011;54257;54.496;18.412;2023-04-30T00:31:52;4.70;;;2.60;;
67372;SDS011;54257;54.496;18.412;2023-04-30T00:34:19;6.40;;;3.60;;
67372;SDS011;54257;54.496;18.412;2023-04-30T00:36:46;9.40;;;2.90;;
67372;SDS011;54257;54.496;18.412;2023-04-30T00:39:13;4.50;;;2.70;;
67372;SDS011;54257;54.496;18.412;2023-04-30T00:41:40;5.30;;;2.50;;
67372;SDS011;54257;54.496;18.412;2023-04-30T00:44:08;5.50;;;2.70;;
67372;SDS011;54257;54.496;18.412;2023-04-30T00:46:35;5.20;;;2.60;;
67372;SDS011;54257;54.496;18.412;2023-04-30T00:49:02;6.00;;;3.20;;
67372;SDS011;54257;54.496;18.412;2023-04-30T00:51:34;7.20;;;2.90;;
67372;SDS011;54257;54.496;18.412;2023-04-30T00:54:01;5.80;;;2.90;;
67372;SDS011;54257;54.496;18.412;2023-04-30T00:56:29;5.90;;;2.60;;
67372;SDS011;54257;54.496;18.412;2023-04-30T00:58:57;5.70;;;2.60;;
67372;SDS011;54257;54.496;18.412;2023-04-30T01:01:25;4.00;;;2.30;;
67372;SDS011;54257;54.496;18.412;2023-04-30T01:03:54;5.70;;;2.30;;
67372;SDS011;54257;54.496;18.412;2023-04-30T01:06:21;5.70;;;2.20;;
67372;SDS011;54257;54.496;18.412;2023-04-30T01:08:49;7.50;;;2.70;;
67372;SDS011;54257;54.496;18.412;2023-04-30T01:11:20;4.60;;;2.50;;
67372;SDS011;54257;54.496;18.412;2023-04-30T01:14:27;6.20;;;2.40;;
67372;SDS011;54257;54.496;18.412;2023-04-30T01:17:07;4.80;;;2.70;;
67372;SDS011;54257;54.496;18.412;2023-04-30T01:19:57;4.20;;;2.30;;
67372;SDS011;54257;54.496;18.412;2023-04-30T01:30:26;6.00;;;2.40;;
67372;SDS011;54257;54.496;18.412;2023-04-30T01:32:57;7.20;;;2.30;;
67372;SDS011;54257;54.496;18.412;2023-04-30T01:35:36;3.70;;;2.30;;
67372;SDS011;54257;54.496;18.412;2023-04-30T01:43:54;7.80;;;2.60;;
67372;SDS011;54257;54.496;18.412;2023-04-30T01:46:30;7.10;;;2.10;;
67372;SDS011;54257;54.496;18.412;2023-04-30T01:51:59;4.70;;;2.50;;
67372;SDS011;54257;54.496;18.412;2023-04-30T01:54:54;5.50;;;2.10;;
67372;SDS011;54257;54.496;18.412;2023-04-30T01:57:27;4.80;;;2.40;;
67372;SDS011;54257;54.496;18.412;2023-04-30T02:00:00;4.00;;;2.00;;
67372;SDS011;54257;54.496;18.412;2023-04-30T02:02:28;5.80;;;2.20;;
67372;SDS011;54257;54.496;18.412;2023-04-30T02:04:56;7.00;;;2.30;;
67372;SDS011;54257;54.496;18.412;2023-04-30T02:07:36;7.50;;;2.00;;
67372;SDS011;54257;54.496;18.412;2023-04-30T02:10:07;7.20;;;2.10;;
67372;SDS011;54257;54.496;18.412;2023-04-30T02:12:35;6.60;;;2.50;;
67372;SDS011;54257;54.496;18.412;2023-04-30T02:15:03;3.30;;;1.90;;
67372;SDS011;54257;54.496;18.412;2023-04-30T02:17:31;7.40;;;2.50;;
67372;SDS011;54257;54.496;18.412;2023-04-30T02:19:58;4.00;;;2.80;;
67372;SDS011;54257;54.496;18.412;2023-04-30T02:22:25;9.40;;;2.70;;
67372;SDS011;54257;54.496;18.412;2023-04-30T02:24:53;6.00;;;2.10;;
67372;SDS011;54257;54.496;18.412;2023-04-30T02:27:22;8.90;;;2.20;;
67372;SDS011;54257;54.496;18.412;2023-04-30T02:29:50;7.50;;;2.20;;
67372;SDS011;54257;54.496;18.412;2023-04-30T02:32:17;7.80;;;2.30;;
67372;SDS011;54257;54.496;18.412;2023-04-30T02:34:44;7.40;;;2.40;;
67372;SDS011;54257;54.496;18.412;2023-04-30T02:37:11;6.50;;;2.40;;
67372;SDS011;54257;54.496;18.412;2023-04-30T02:39:38;5.10;;;2.30;;
67372;SDS011;54257;54.496;18.412;2023-04-30T02:42:05;5.50;;;1.90;;
67372;SDS011;54257;54.496;18.412;2023-04-30T02:44:32;8.50;;;2.50;;
67372;SDS011;54257;54.496;18.412;2023-04-30T02:47:00;5.50;;;2.10;;
67372;SDS011;54257;54.496;18.412;2023-04-30T02:49:28;7.80;;;2.40;;
67372;SDS011;54257;54.496;18.412;2023-04-30T02:51:55;8.10;;;2.40;;
67372;SDS011;54257;54.496;18.412;2023-04-30T02:54:22;7.10;;;2.60;;
67372;SDS011;54257;54.496;18.412;2023-04-30T02:56:48;4.70;;;2.40;;
67372;SDS011;54257;54.496;18.412;2023-04-30T02:59:15;6.20;;;2.40;;
67372;SDS011;54257;54.496;18.412;2023-04-30T03:01:42;7.10;;;2.60;;
67372;SDS011;54257;54.496;18.412;2023-04-30T03:04:09;8.00;;;2.50;;
67372;SDS011;54257;54.496;18.412;2023-04-30T03:06:36;5.20;;;2.60;;
67372;SDS011;54257;54.496;18.412;2023-04-30T03:09:02;7.40;;;3.00;;
67372;SDS011;54257;54.496;18.412;2023-04-30T03:11:29;4.00;;;2.40;;
67372;SDS011;54257;54.496;18.412;2023-04-30T03:13:56;5.40;;;2.10;;
67372;SDS011;54257;54.496;18.412;2023-04-30T03:16:23;7.60;;;3.10;;
67372;SDS011;54257;54.496;18.412;2023-04-30T03:18:50;7.00;;;2.60;;
67372;SDS011;54257;54.496;18.412;2023-04-30T03:21:17;5.80;;;2.50;;
67372;SDS011;54257;54.496;18.412;2023-04-30T03:23:44;6.10;;;3.00;;
67372;SDS011;54257;54.496;18.412;2023-04-30T03:26:11;7.60;;;2.60;;
67372;SDS011;54257;54.496;18.412;2023-04-30T03:28:38;4.80;;;2.50;;
67372;SDS011;54257;54.496;18.412;2023-04-30T03:31:05;6.50;;;3.10;;
67372;SDS011;54257;54.496;18.412;2023-04-30T03:33:32;8.00;;;2.90;;
67372;SDS011;54257;54.496;18.412;2023-04-30T03:35:59;7.80;;;2.50;;
67372;SDS011;54257;54.496;18.412;2023-04-30T03:38:25;7.50;;;2.50;;
67372;SDS011;54257;54.496;18.412;2023-04-30T03:40:52;6.30;;;2.30;;
67372;SDS011;54257;54.496;18.412;2023-04-30T03:43:20;6.70;;;2.60;;
67372;SDS011;54257;54.496;18.412;2023-04-30T03:45:47;5.40;;;2.40;;
67372;SDS011;54257;54.496;18.412;2023-04-30T03:48:15;7.80;;;2.90;;
67372;SDS011;54257;54.496;18.412;2023-04-30T03:50:41;9.80;;;2.90;;
67372;SDS011;54257;54.496;18.412;2023-04-30T03:53:08;7.50;;;2.60;;
67372;SDS011;54257;54.496;18.412;2023-04-30T03:55:35;5.10;;;2.50;;
67372;SDS011;54257;54.496;18.412;2023-04-30T03:58:02;5.60;;;2.80;;
67372;SDS011;54257;54.496;18.412;2023-04-30T04:00:29;7.50;;;2.70;;
67372;SDS011;54257;54.496;18.412;2023-04-30T04:02:57;6.20;;;2.50;;
67372;SDS011;54257;54.496;18.412;2023-04-30T04:05:24;7.30;;;2.60;;
67372;SDS011;54257;54.496;18.412;2023-04-30T04:07:52;9.10;;;2.90;;
67372;SDS011;54257;54.496;18.412;2023-04-30T04:10:18;5.60;;;2.30;;
67372;SDS011;54257;54.496;18.412;2023-04-30T04:12:46;5.50;;;3.00;;
67372;SDS011;54257;54.496;18.412;2023-04-30T04:15:12;6.10;;;2.60;;
67372;SDS011;54257;54.496;18.412;2023-04-30T04:17:41;7.00;;;2.80;;
67372;SDS011;54257;54.496;18.412;2023-04-30T04:20:07;5.50;;;3.00;;
67372;SDS011;54257;54.496;18.412;2023-04-30T04:22:35;6.20;;;2.60;;
67372;SDS011;54257;54.496;18.412;2023-04-30T04:25:01;7.40;;;2.80;;
67372;SDS011;54257;54.496;18.412;2023-04-30T04:27:29;6.60;;;3.00;;
67372;SDS011;54257;54.496;18.412;2023-04-30T04:29:56;9.50;;;3.50;;
67372;SDS011;54257;54.496;18.412;2023-04-30T04:32:23;7.00;;;2.80;;
67372;SDS011;54257;54.496;18.412;2023-04-30T04:34:50;8.70;;;3.10;;
67372;SDS011;54257;54.496;18.412;2023-04-30T04:37:19;7.60;;;3.00;;
67372;SDS011;54257;54.496;18.412;2023-04-30T04:39:46;5.80;;;2.70;;
67372;SDS011;54257;54.496;18.412;2023-04-30T04:42:14;7.90;;;2.90;;
67372;SDS011;54257;54.496;18.412;2023-04-30T04:44:42;10.50;;;3.10;;
67372;SDS011;54257;54.496;18.412;2023-04-30T04:47:09;8.60;;;2.70;;
67372;SDS011;54257;54.496;18.412;2023-04-30T04:49:38;8.70;;;2.80;;
67372;SDS011;54257;54.496;18.412;2023-04-30T04:52:05;6.60;;;2.70;;
67372;SDS011;54257;54.496;18.412;2023-04-30T04:54:32;7.90;;;2.90;;
67372;SDS011;54257;54.496;18.412;2023-04-30T04:56:59;7.60;;;3.30;;
67372;SDS011;54257;54.496;18.412;2023-04-30T04:59:26;11.30;;;3.80;;
67372;SDS011;54257;54.496;18.412;2023-04-30T05:01:53;7.50;;;2.50;;
67372;SDS011;54257;54.496;18.412;2023-04-30T05:04:20;8.40;;;3.40;;
67372;SDS011;54257;54.496;18.412;2023-04-30T05:06:47;11.10;;;3.70;;
67372;SDS011;54257;54.496;18.412;2023-04-30T05:09:14;8.50;;;3.70;;
67372;SDS011;54257;54.496;18.412;2023-04-30T05:11:41;11.40;;;3.40;;
67372;SDS011;54257;54.496;18.412;2023-04-30T05:14:10;9.80;;;3.10;;
67372;SDS011;54257;54.496;18.412;2023-04-30T05:16:36;8.00;;;2.90;;
67372;SDS011;54257;54.496;18.412;2023-04-30T05:19:03;9.80;;;2.90;;
67372;SDS011;54257;54.496;18.412;2023-04-30T05:21:30;10.00;;;3.30;;
67372;SDS011;54257;54.496;18.412;2023-04-30T05:23:57;9.80;;;3.30;;
67372;SDS011;54257;54.496;18.412;2023-04-30T05:26:24;12.10;;;3.70;;
67372;SDS011;54257;54.496;18.412;2023-04-30T05:28:52;5.90;;;3.00;;
67372;SDS011;54257;54.496;18.412;2023-04-30T05:31:19;9.10;;;2.80;;
67372;SDS011;54257;54.496;18.412;2023-04-30T05:33:46;9.20;;;3.90;;
67372;SDS011;54257;54.496;18.412;2023-04-30T05:36:13;8.00;;;3.30;;
67372;SDS011;54257;54.496;18.412;2023-04-30T05:38:40;7.10;;;3.30;;
67372;SDS011;54257;54.496;18.412;2023-04-30T05:41:09;13.20;;;3.40;;
67372;SDS011;54257;54.496;18.412;2023-04-30T05:43:37;12.60;;;3.60;;
67372;SDS011;54257;54.496;18.412;2023-04-30T05:46:04;6.90;;;3.30;;
67372;SDS011;54257;54.496;18.412;2023-04-30T05:48:31;10.20;;;3.20;;
67372;SDS011;54257;54.496;18.412;2023-04-30T05:50:58;12.20;;;4.10;;
67372;SDS011;54257;54.496;18.412;2023-04-30T05:53:25;12.00;;;3.20;;
67372;SDS011;54257;54.496;18.412;2023-04-30T05:55:52;10.90;;;3.60;;
67372;SDS011;54257;54.496;18.412;2023-04-30T05:58:18;11.20;;;3.90;;
67372;SDS011;54257;54.496;18.412;2023-04-30T06:00:47;8.60;;;3.50;;
67372;SDS011;54257;54.496;18.412;2023-04-30T06:03:19;9.60;;;3.20;;
67372;SDS011;54257;54.496;18.412;2023-04-30T06:05:46;13.00;;;3.90;;
67372;SDS011;54257;54.496;18.412;2023-04-30T06:08:13;10.00;;;3.40;;
67372;SDS011;54257;54.496;18.412;2023-04-30T06:10:40;9.60;;;3.10;;
67372;SDS011;54257;54.496;18.412;2023-04-30T06:13:07;9.80;;;3.70;;
67372;SDS011;54257;54.496;18.412;2023-04-30T06:15:34;10.00;;;3.40;;
67372;SDS011;54257;54.496;18.412;2023-04-30T06:18:01;10.80;;;3.10;;
67372;SDS011;54257;54.496;18.412;2023-04-30T06:20:28;6.40;;;2.90;;
67372;SDS011;54257;54.496;18.412;2023-04-30T06:22:55;7.20;;;2.80;;
67372;SDS011;54257;54.496;18.412;2023-04-30T06:25:22;10.70;;;3.70;;
67372;SDS011;54257;54.496;18.412;2023-04-30T06:27:49;8.90;;;3.10;;
67372;SDS011;54257;54.496;18.412;2023-04-30T06:30:22;11.10;;;3.40;;
67372;SDS011;54257;54.496;18.412;2023-04-30T06:32:49;6.50;;;3.00;;
67372;SDS011;54257;54.496;18.412;2023-04-30T06:35:16;8.30;;;3.00;;
67372;SDS011;54257;54.496;18.412;2023-04-30T06:37:43;7.00;;;3.40;;
67372;SDS011;54257;54.496;18.412;2023-04-30T06:40:10;8.60;;;3.30;;
67372;SDS011;54257;54.496;18.412;2023-04-30T06:42:37;12.40;;;3.40;;
67372;SDS011;54257;54.496;18.412;2023-04-30T06:45:04;7.80;;;2.50;;
67372;SDS011;54257;54.496;18.412;2023-04-30T06:47:33;4.50;;;3.00;;
67372;SDS011;54257;54.496;18.412;2023-04-30T06:50:01;7.90;;;3.20;;
67372;SDS011;54257;54.496;18.412;2023-04-30T06:52:29;8.70;;;3.20;;
67372;SDS011;54257;54.496;18.412;2023-04-30T06:54:56;7.30;;;3.10;;
67372;SDS011;54257;54.496;18.412;2023-04-30T06:57:23;5.50;;;3.20;;
67372;SDS011;54257;54.496;18.412;2023-04-30T06:59:51;7.60;;;2.70;;
67372;SDS011;54257;54.496;18.412;2023-04-30T07:02:17;7.50;;;3.00;;
67372;SDS011;54257;54.496;18.412;2023-04-30T07:04:44;5.80;;;2.50;;
67372;SDS011;54257;54.496;18.412;2023-04-30T07:07:11;6.50;;;2.60;;
67372;SDS011;54257;54.496;18.412;2023-04-30T07:09:38;7.10;;;2.40;;
67372;SDS011;54257;54.496;18.412;2023-04-30T07:12:06;7.90;;;3.00;;
67372;SDS011;54257;54.496;18.412;2023-04-30T07:14:32;7.90;;;2.70;;
67372;SDS011;54257;54.496;18.412;2023-04-30T07:16:59;6.40;;;2.90;;
67372;SDS011;54257;54.496;18.412;2023-04-30T07:19:27;8.80;;;3.10;;
67372;SDS011;54257;54.496;18.412;2023-04-30T07:21:54;4.30;;;2.60;;
67372;SDS011;54257;54.496;18.412;2023-04-30T07:24:21;8.60;;;3.10;;
67372;SDS011;54257;54.496;18.412;2023-04-30T07:26:51;4.80;;;2.30;;
67372;SDS011;54257;54.496;18.412;2023-04-30T07:29:18;6.50;;;2.10;;
67372;SDS011;54257;54.496;18.412;2023-04-30T07:31:45;7.90;;;2.60;;
67372;SDS011;54257;54.496;18.412;2023-04-30T07:34:13;5.80;;;2.40;;
67372;SDS011;54257;54.496;18.412;2023-04-30T07:36:40;8.40;;;2.30;;
67372;SDS011;54257;54.496;18.412;2023-04-30T07:39:07;8.80;;;2.90;;
67372;SDS011;54257;54.496;18.412;2023-04-30T07:41:34;6.30;;;2.50;;
67372;SDS011;54257;54.496;18.412;2023-04-30T07:44:00;5.50;;;2.20;;
67372;SDS011;54257;54.496;18.412;2023-04-30T07:46:27;5.20;;;2.00;;
67372;SDS011;54257;54.496;18.412;2023-04-30T07:48:54;6.20;;;2.20;;
67372;SDS011;54257;54.496;18.412;2023-04-30T07:51:21;4.30;;;2.00;;
67372;SDS011;54257;54.496;18.412;2023-04-30T07:53:48;9.60;;;2.40;;
67372;SDS011;54257;54.496;18.412;2023-04-30T07:56:15;5.40;;;2.30;;
67372;SDS011;54257;54.496;18.412;2023-04-30T07:58:42;3.80;;;1.90;;
67372;SDS011;54257;54.496;18.412;2023-04-30T08:01:09;5.50;;;1.90;;
67372;SDS011;54257;54.496;18.412;2023-04-30T08:03:36;2.50;;;1.70;;
67372;SDS011;54257;54.496;18.412;2023-04-30T08:06:03;6.50;;;2.60;;
67372;SDS011;54257;54.496;18.412;2023-04-30T08:08:31;3.80;;;1.90;;
67372;SDS011;54257;54.496;18.412;2023-04-30T08:10:58;4.70;;;2.00;;
67372;SDS011;54257;54.496;18.412;2023-04-30T08:13:25;3.20;;;1.70;;
67372;SDS011;54257;54.496;18.412;2023-04-30T08:15:52;6.30;;;2.00;;
67372;SDS011;54257;54.496;18.412;2023-04-30T08:18:19;4.90;;;1.70;;
67372;SDS011;54257;54.496;18.412;2023-04-30T08:20:46;7.20;;;2.60;;
67372;SDS011;54257;54.496;18.412;2023-04-30T08:23:13;4.70;;;1.80;;
67372;SDS011;54257;54.496;18.412;2023-04-30T08:25:40;5.20;;;2.00;;
67372;SDS011;54257;54.496;18.412;2023-04-30T08:28:06;4.90;;;1.60;;
67372;SDS011;54257;54.496;18.412;2023-04-30T08:30:33;4.70;;;1.70;;
67372;SDS011;54257;54.496;18.412;2023-04-30T08:33:00;4.20;;;1.80;;
67372;SDS011;54257;54.496;18.412;2023-04-30T08:35:27;4.50;;;1.50;;
67372;SDS011;54257;54.496;18.412;2023-04-30T08:37:55;4.40;;;2.00;;
67372;SDS011;54257;54.496;18.412;2023-04-30T08:40:22;3.50;;;1.80;;
67372;SDS011;54257;54.496;18.412;2023-04-30T08:43:05;3.80;;;1.30;;
67372;SDS011;54257;54.496;18.412;2023-04-30T08:45:33;3.60;;;1.30;;
67372;SDS011;54257;54.496;18.412;2023-04-30T08:48:02;2.30;;;1.30;;
67372;SDS011;54257;54.496;18.412;2023-04-30T08:50:40;3.30;;;1.30;;
67372;SDS011;54257;54.496;18.412;2023-04-30T08:53:07;3.50;;;2.00;;
67372;SDS011;54257;54.496;18.412;2023-04-30T08:55:36;2.80;;;1.10;;
67372;SDS011;54257;54.496;18.412;2023-04-30T08:58:05;6.40;;;1.50;;
67372;SDS011;54257;54.496;18.412;2023-04-30T09:00:32;2.80;;;1.20;;
67372;SDS011;54257;54.496;18.412;2023-04-30T09:03:03;1.30;;;1.00;;
67372;SDS011;54257;54.496;18.412;2023-04-30T09:05:33;5.60;;;1.60;;
67372;SDS011;54257;54.496;18.412;2023-04-30T09:08:00;5.10;;;1.50;;
67372;SDS011;54257;54.496;18.412;2023-04-30T09:10:27;2.40;;;1.50;;
67372;SDS011;54257;54.496;18.412;2023-04-30T09:13:02;4.70;;;1.70;;
67372;SDS011;54257;54.496;18.412;2023-04-30T09:15:36;2.80;;;1.50;;
67372;SDS011;54257;54.496;18.412;2023-04-30T09:18:13;1.80;;;1.20;;
67372;SDS011;54257;54.496;18.412;2023-04-30T09:20:53;4.60;;;1.70;;
67372;SDS011;54257;54.496;18.412;2023-04-30T09:23:20;3.80;;;1.50;;
67372;SDS011;54257;54.496;18.412;2023-04-30T09:25:47;2.50;;;1.40;;
67372;SDS011;54257;54.496;18.412;2023-04-30T09:28:14;4.20;;;1.40;;
67372;SDS011;54257;54.496;18.412;2023-04-30T09:30:41;4.30;;;1.30;;
67372;SDS011;54257;54.496;18.412;2023-04-30T09:33:09;2.10;;;1.40;;
67372;SDS011;54257;54.496;18.412;2023-04-30T09:35:36;4.20;;;1.60;;
67372;SDS011;54257;54.496;18.412;2023-04-30T09:38:07;2.30;;;1.30;;
67372;SDS011;54257;54.496;18.412;2023-04-30T09:40:51;4.90;;;1.50;;
67372;SDS011;54257;54.496;18.412;2023-04-30T09:43:19;3.40;;;1.80;;
67372;SDS011;54257;54.496;18.412;2023-04-30T09:45:47;2.70;;;1.50;;
67372;SDS011;54257;54.496;18.412;2023-04-30T09:48:20;2.30;;;1.60;;
67372;SDS011;54257;54.496;18.412;2023-04-30T09:50:49;3.60;;;1.20;;
67372;SDS011;54257;54.496;18.412;2023-04-30T09:53:17;2.50;;;1.50;;
67372;SDS011;54257;54.496;18.412;2023-04-30T09:55:48;3.50;;;1.30;;
67372;SDS011;54257;54.496;18.412;2023-04-30T09:58:17;3.60;;;1.70;;
67372;SDS011;54257;54.496;18.412;2023-04-30T10:00:45;3.00;;;1.70;;
67372;SDS011;54257;54.496;18.412;2023-04-30T10:03:15;4.80;;;1.60;;
67372;SDS011;54257;54.496;18.412;2023-04-30T10:05:43;3.60;;;1.30;;
67372;SDS011;54257;54.496;18.412;2023-04-30T10:08:21;4.70;;;1.90;;
67372;SDS011;54257;54.496;18.412;2023-04-30T10:10:56;7.00;;;1.40;;
67372;SDS011;54257;54.496;18.412;2023-04-30T10:13:30;3.80;;;2.00;;
67372;SDS011;54257;54.496;18.412;2023-04-30T10:16:03;3.60;;;1.50;;
67372;SDS011;54257;54.496;18.412;2023-04-30T10:18:38;2.80;;;1.40;;
67372;SDS011;54257;54.496;18.412;2023-04-30T10:21:08;3.20;;;1.50;;
67372;SDS011;54257;54.496;18.412;2023-04-30T10:23:40;2.10;;;1.50;;
67372;SDS011;54257;54.496;18.412;2023-04-30T10:26:11;4.30;;;1.60;;
67372;SDS011;54257;54.496;18.412;2023-04-30T10:28:41;4.60;;;2.10;;
67372;SDS011;54257;54.496;18.412;2023-04-30T10:31:08;3.20;;;1.40;;
67372;SDS011;54257;54.496;18.412;2023-04-30T10:33:53;7.60;;;1.60;;
67372;SDS011;54257;54.496;18.412;2023-04-30T10:37:14;4.70;;;1.50;;
67372;SDS011;54257;54.496;18.412;2023-04-30T10:39:50;12.60;;;3.10;;
67372;SDS011;54257;54.496;18.412;2023-04-30T10:42:17;2.30;;;1.50;;
67372;SDS011;54257;54.496;18.412;2023-04-30T10:44:45;5.50;;;1.80;;
67372;SDS011;54257;54.496;18.412;2023-04-30T10:47:14;4.60;;;1.80;;
67372;SDS011;54257;54.496;18.412;2023-04-30T10:49:45;3.00;;;1.80;;
67372;SDS011;54257;54.496;18.412;2023-04-30T10:52:15;4.40;;;1.50;;
67372;SDS011;54257;54.496;18.412;2023-04-30T10:54:54;4.20;;;1.70;;
67372;SDS011;54257;54.496;18.412;2023-04-30T10:57:21;4.60;;;2.10;;
67372;SDS011;54257;54.496;18.412;2023-04-30T10:59:52;3.50;;;1.30;;
67372;SDS011;54257;54.496;18.412;2023-04-30T11:02:40;3.50;;;1.60;;
67372;SDS011;54257;54.496;18.412;2023-04-30T11:05:13;3.90;;;1.80;;
67372;SDS011;54257;54.496;18.412;2023-04-30T11:07:56;4.00;;;1.70;;
67372;SDS011;54257;54.496;18.412;2023-04-30T11:10:24;3.80;;;1.50;;
67372;SDS011;54257;54.496;18.412;2023-04-30T11:12:54;3.10;;;1.90;;
67372;SDS011;54257;54.496;18.412;2023-04-30T11:15:25;4.10;;;1.80;;
67372;SDS011;54257;54.496;18.412;2023-04-30T11:17:56;1.80;;;1.40;;
67372;SDS011;54257;54.496;18.412;2023-04-30T11:20:28;6.30;;;1.70;;
67372;SDS011;54257;54.496;18.412;2023-04-30T11:23:14;4.00;;;1.50;;
67372;SDS011;54257;54.496;18.412;2023-04-30T11:25:43;4.20;;;1.70;;
67372;SDS011;54257;54.496;18.412;2023-04-30T11:31:02;4.30;;;1.50;;
67372;SDS011;54257;54.496;18.412;2023-04-30T11:33:32;2.90;;;1.40;;
67372;SDS011;54257;54.496;18.412;2023-04-30T11:36:00;3.70;;;1.70;;
67372;SDS011;54257;54.496;18.412;2023-04-30T11:38:29;3.70;;;1.50;;
67372;SDS011;54257;54.496;18.412;2023-04-30T11:41:02;4.30;;;1.60;;
67372;SDS011;54257;54.496;18.412;2023-04-30T11:43:30;2.90;;;1.80;;
67372;SDS011;54257;54.496;18.412;2023-04-30T11:48:37;4.20;;;1.70;;
67372;SDS011;54257;54.496;18.412;2023-04-30T11:51:18;3.00;;;1.50;;
67372;SDS011;54257;54.496;18.412;2023-04-30T11:53:48;3.60;;;2.00;;
67372;SDS011;54257;54.496;18.412;2023-04-30T11:56:22;2.70;;;1.50;;
67372;SDS011;54257;54.496;18.412;2023-04-30T11:58:51;2.50;;;1.70;;
67372;SDS011;54257;54.496;18.412;2023-04-30T12:01:20;2.90;;;1.70;;
67372;SDS011;54257;54.496;18.412;2023-04-30T12:03:51;3.70;;;1.50;;
67372;SDS011;54257;54.496;18.412;2023-04-30T12:06:25;2.90;;;1.40;;
67372;SDS011;54257;54.496;18.412;2023-04-30T12:08:54;3.10;;;1.70;;
67372;SDS011;54257;54.496;18.412;2023-04-30T12:11:27;3.40;;;1.80;;
67372;SDS011;54257;54.496;18.412;2023-04-30T12:13:56;5.10;;;1.80;;
67372;SDS011;54257;54.496;18.412;2023-04-30T12:16:26;3.00;;;1.60;;
67372;SDS011;54257;54.496;18.412;2023-04-30T12:18:54;3.80;;;1.60;;
67372;SDS011;54257;54.496;18.412;2023-04-30T12:21:21;2.60;;;1.80;;
67372;SDS011;54257;54.496;18.412;2023-04-30T12:23:48;6.20;;;2.70;;
67372;SDS011;54257;54.496;18.412;2023-04-30T12:26:15;3.10;;;1.60;;
67372;SDS011;54257;54.496;18.412;2023-04-30T12:28:45;5.70;;;2.00;;
67372;SDS011;54257;54.496;18.412;2023-04-30T12:31:15;3.40;;;1.70;;
67372;SDS011;54257;54.496;18.412;2023-04-30T12:33:43;2.80;;;1.70;;
67372;SDS011;54257;54.496;18.412;2023-04-30T12:36:18;2.50;;;1.50;;
67372;SDS011;54257;54.496;18.412;2023-04-30T12:38:46;5.60;;;2.00;;
67372;SDS011;54257;54.496;18.412;2023-04-30T12:41:13;2.80;;;1.90;;
67372;SDS011;54257;54.496;18.412;2023-04-30T12:43:42;4.80;;;1.80;;
67372;SDS011;54257;54.496;18.412;2023-04-30T12:46:09;4.50;;;2.30;;
67372;SDS011;54257;54.496;18.412;2023-04-30T12:48:43;3.10;;;2.10;;
67372;SDS011;54257;54.496;18.412;2023-04-30T12:51:18;1.90;;;1.70;;
67372;SDS011;54257;54.496;18.412;2023-04-30T12:53:45;5.80;;;2.20;;
67372;SDS011;54257;54.496;18.412;2023-04-30T12:56:13;4.10;;;1.80;;
67372;SDS011;54257;54.496;18.412;2023-04-30T12:58:45;3.60;;;2.10;;
67372;SDS011;54257;54.496;18.412;2023-04-30T13:01:17;3.80;;;2.00;;
67372;SDS011;54257;54.496;18.412;2023-04-30T13:03:46;3.80;;;2.10;;
67372;SDS011;54257;54.496;18.412;2023-04-30T13:06:13;4.20;;;1.80;;
67372;SDS011;54257;54.496;18.412;2023-04-30T13:08:40;4.00;;;1.90;;
67372;SDS011;54257;54.496;18.412;2023-04-30T13:11:09;7.20;;;2.10;;
67372;SDS011;54257;54.496;18.412;2023-04-30T13:13:36;8.00;;;2.20;;
67372;SDS011;54257;54.496;18.412;2023-04-30T13:16:03;3.10;;;2.10;;
67372;SDS011;54257;54.496;18.412;2023-04-30T13:18:31;5.60;;;2.10;;
67372;SDS011;54257;54.496;18.412;2023-04-30T13:20:59;3.50;;;2.00;;
67372;SDS011;54257;54.496;18.412;2023-04-30T13:23:26;4.70;;;2.30;;
67372;SDS011;54257;54.496;18.412;2023-04-30T13:25:53;5.60;;;5.00;;
67372;SDS011;54257;54.496;18.412;2023-04-30T13:28:19;6.30;;;2.60;;
67372;SDS011;54257;54.496;18.412;2023-04-30T13:30:46;8.40;;;2.60;;
67372;SDS011;54257;54.496;18.412;2023-04-30T13:33:13;5.50;;;3.20;;
67372;SDS011;54257;54.496;18.412;2023-04-30T13:35:40;4.70;;;2.70;;
67372;SDS011;54257;54.496;18.412;2023-04-30T13:38:07;8.30;;;2.50;;
67372;SDS011;54257;54.496;18.412;2023-04-30T13:40:34;5.30;;;2.60;;
67372;SDS011;54257;54.496;18.412;2023-04-30T13:43:01;3.00;;;2.00;;
67372;SDS011;54257;54.496;18.412;2023-04-30T13:45:28;4.00;;;2.00;;
67372;SDS011;54257;54.496;18.412;2023-04-30T13:47:54;3.80;;;2.10;;
67372;SDS011;54257;54.496;18.412;2023-04-30T13:50:22;4.10;;;2.30;;
67372;SDS011;54257;54.496;18.412;2023-04-30T13:52:49;4.10;;;1.90;;
67372;SDS011;54257;54.496;18.412;2023-04-30T13:55:16;5.30;;;2.20;;
67372;SDS011;54257;54.496;18.412;2023-04-30T13:57:43;4.10;;;2.30;;
67372;SDS011;54257;54.496;18.412;2023-04-30T14:00:09;5.00;;;2.10;;
67372;SDS011;54257;54.496;18.412;2023-04-30T14:02:37;3.80;;;2.30;;
67372;SDS011;54257;54.496;18.412;2023-04-30T14:05:04;6.00;;;2.60;;
67372;SDS011;54257;54.496;18.412;2023-04-30T14:07:31;7.50;;;3.20;;
67372;SDS011;54257;54.496;18.412;2023-04-30T14:10:01;8.30;;;3.70;;
67372;SDS011;54257;54.496;18.412;2023-04-30T14:12:28;3.30;;;2.20;;
67372;SDS011;54257;54.496;18.412;2023-04-30T14:14:59;5.30;;;2.30;;
67372;SDS011;54257;54.496;18.412;2023-04-30T14:17:26;4.60;;;2.90;;
67372;SDS011;54257;54.496;18.412;2023-04-30T14:19:53;6.90;;;3.50;;
67372;SDS011;54257;54.496;18.412;2023-04-30T14:22:20;4.60;;;3.00;;
67372;SDS011;54257;54.496;18.412;2023-04-30T14:24:47;8.30;;;3.80;;
67372;SDS011;54257;54.496;18.412;2023-04-30T14:27:14;6.70;;;3.50;;
67372;SDS011;54257;54.496;18.412;2023-04-30T14:29:41;6.40;;;3.60;;
67372;SDS011;54257;54.496;18.412;2023-04-30T14:32:07;9.10;;;4.00;;
67372;SDS011;54257;54.496;18.412;2023-04-30T14:34:34;4.90;;;2.90;;
67372;SDS011;54257;54.496;18.412;2023-04-30T14:37:02;8.40;;;4.80;;
67372;SDS011;54257;54.496;18.412;2023-04-30T14:39:28;13.90;;;6.30;;
67372;SDS011;54257;54.496;18.412;2023-04-30T14:41:56;6.60;;;3.60;;
67372;SDS011;54257;54.496;18.412;2023-04-30T14:44:23;3.20;;;2.60;;
67372;SDS011;54257;54.496;18.412;2023-04-30T14:46:51;7.10;;;3.50;;
67372;SDS011;54257;54.496;18.412;2023-04-30T14:49:18;13.00;;;7.90;;
67372;SDS011;54257;54.496;18.412;2023-04-30T14:51:45;10.90;;;5.00;;
67372;SDS011;54257;54.496;18.412;2023-04-30T14:54:12;4.90;;;2.40;;
67372;SDS011;54257;54.496;18.412;2023-04-30T14:56:38;5.70;;;3.00;;
67372;SDS011;54257;54.496;18.412;2023-04-30T14:59:05;4.30;;;2.50;;
67372;SDS011;54257;54.496;18.412;2023-04-30T15:01:32;7.40;;;3.80;;
67372;SDS011;54257;54.496;18.412;2023-04-30T15:03:59;8.10;;;3.00;;